createdAt,value
2023-07-03T00:00:22.227Z,59.31
2023-07-03T00:03:11.442Z,59.57
2023-07-03T00:06:02.618Z,59.06
2023-07-03T00:08:49.587Z,59.65
2023-07-03T00:11:36.781Z,60.04
2023-07-03T00:14:23.812Z,59.97
2023-07-03T00:17:10.958Z,59.75
2023-07-03T00:19:58.082Z,59.85
2023-07-03T00:22:45.283Z,59.86
2023-07-03T00:25:32.405Z,60.01
2023-07-03T00:28:19.353Z,60.21
2023-07-03T00:31:06.826Z,59.97
2023-07-03T00:33:53.828Z,60.07
2023-07-03T00:36:40.844Z,60.26
2023-07-03T00:39:27.862Z,60.41
2023-07-03T00:42:14.836Z,60.67
2023-07-03T00:45:02.161Z,60.63
2023-07-03T00:47:49.274Z,60.37
2023-07-03T00:50:37.267Z,60.78
2023-07-03T00:53:26.051Z,61.06
2023-07-03T00:56:13.262Z,60.89
2023-07-03T00:59:00.444Z,60.61
2023-07-03T01:01:51.002Z,61.14
2023-07-03T01:05:02.360Z,61.00
2023-07-03T01:07:53.080Z,61.15
2023-07-03T01:10:42.927Z,61.58
2023-07-03T01:13:35.962Z,60.85
2023-07-03T01:16:27.535Z,61.13
2023-07-03T01:19:14.974Z,61.27
2023-07-03T01:22:17.304Z,60.96
2023-07-03T01:25:11.407Z,61.14
2023-07-03T01:28:02.039Z,61.87
2023-07-03T01:30:49.562Z,61.90
2023-07-03T01:33:40.382Z,61.71
2023-07-03T01:36:28.800Z,61.92
2023-07-03T01:39:19.754Z,61.62
2023-07-03T01:42:06.899Z,62.66
2023-07-03T01:44:53.865Z,62.31
2023-07-03T01:47:41.212Z,62.25
2023-07-03T01:50:33.340Z,62.24
2023-07-03T01:53:25.699Z,62.72
2023-07-03T01:56:36.747Z,62.80
2023-07-03T01:59:29.623Z,62.93
2023-07-03T02:02:28.304Z,62.44
2023-07-03T02:05:38.165Z,62.93
2023-07-03T02:08:28.450Z,63.32
2023-07-03T02:11:16.864Z,62.59
2023-07-03T02:14:06.486Z,63.03
2023-07-03T02:16:54.293Z,62.93
2023-07-03T02:19:44.504Z,63.52
2023-07-03T02:22:31.597Z,63.40
2023-07-03T02:25:18.531Z,62.99
2023-07-03T02:28:05.530Z,63.23
2023-07-03T02:30:52.619Z,63.33
2023-07-03T02:33:39.663Z,63.18
2023-07-03T02:36:26.861Z,62.98
2023-07-03T02:39:14.063Z,63.24
2023-07-03T02:42:01.072Z,63.23
2023-07-03T02:44:48.197Z,63.34
2023-07-03T02:47:35.583Z,63.43
2023-07-03T02:50:27.940Z,62.78
2023-07-03T02:53:14.971Z,62.45
2023-07-03T02:56:02.986Z,63.46
2023-07-03T02:58:50.893Z,62.70
2023-07-03T03:01:44.068Z,63.08
2023-07-03T03:04:31.111Z,62.92
2023-07-03T03:07:18.367Z,63.59
2023-07-03T03:10:05.344Z,62.77
2023-07-03T03:12:52.430Z,62.85
2023-07-03T03:15:39.884Z,63.24
2023-07-03T03:18:26.990Z,62.81
2023-07-03T03:21:14.495Z,62.81
2023-07-03T03:24:01.516Z,62.84
2023-07-03T03:26:48.520Z,62.41
2023-07-03T03:29:35.602Z,62.15
2023-07-03T03:32:24.380Z,63.07
2023-07-03T03:35:11.510Z,63.04
2023-07-03T03:37:59.532Z,62.95
2023-07-03T03:40:46.573Z,61.96
2023-07-03T03:43:33.767Z,61.48
2023-07-03T03:46:22.506Z,62.52
2023-07-03T03:49:09.832Z,62.58
2023-07-03T03:51:57.651Z,62.15
2023-07-03T03:54:44.875Z,61.60
2023-07-03T03:57:31.789Z,62.05
2023-07-03T04:00:18.987Z,61.19
2023-07-03T04:03:06.368Z,61.33
2023-07-03T04:05:53.868Z,62.24
2023-07-03T04:08:41.258Z,61.12
2023-07-03T04:11:28.242Z,61.04
2023-07-03T04:14:15.449Z,62.02
2023-07-03T04:17:02.520Z,62.20
2023-07-03T04:19:50.177Z,61.61
2023-07-03T04:22:37.143Z,61.90
2023-07-03T04:25:24.250Z,61.96
2023-07-03T04:28:11.194Z,62.02
2023-07-03T04:30:58.583Z,61.46
2023-07-03T04:33:45.581Z,61.87
2023-07-03T04:36:33.689Z,60.97
2023-07-03T04:39:20.629Z,61.97
2023-07-03T04:42:07.994Z,61.23
2023-07-03T04:44:55.111Z,61.10
2023-07-03T04:47:42.309Z,60.69
2023-07-03T04:50:32.936Z,61.72
2023-07-03T04:53:20.096Z,60.89
2023-07-03T04:56:07.027Z,60.58
2023-07-03T04:58:54.058Z,60.53
2023-07-03T05:01:41.094Z,61.05
2023-07-03T05:04:28.239Z,60.96
2023-07-03T05:07:15.319Z,60.83
2023-07-03T05:10:02.548Z,60.76
2023-07-03T05:12:49.897Z,60.59
2023-07-03T05:15:38.770Z,61.70
2023-07-03T05:18:25.722Z,61.44
2023-07-03T05:21:13.059Z,60.57
2023-07-03T05:24:00.245Z,60.32
2023-07-03T05:26:47.320Z,61.25
2023-07-03T05:29:34.225Z,61.18
2023-07-03T05:32:22.620Z,60.99
2023-07-03T05:35:09.661Z,61.15
2023-07-03T05:37:56.974Z,60.10
2023-07-03T05:40:43.885Z,60.18
2023-07-03T05:43:31.254Z,60.70
2023-07-03T05:46:19.761Z,59.98
2023-07-03T05:49:07.040Z,60.55
2023-07-03T05:51:53.923Z,60.45
2023-07-03T05:54:40.931Z,60.52
2023-07-03T05:57:30.796Z,60.53
2023-07-03T06:00:17.765Z,60.56
2023-07-03T06:03:08.062Z,60.12
2023-07-03T06:05:55.298Z,60.26
2023-07-03T06:08:42.431Z,59.89
2023-07-03T06:11:29.604Z,59.59
2023-07-03T06:14:16.508Z,60.17
2023-07-03T06:17:04.168Z,59.77
2023-07-03T06:19:51.578Z,59.56
2023-07-03T06:22:39.130Z,59.90
2023-07-03T06:25:26.287Z,59.66
2023-07-03T06:28:13.430Z,59.67
2023-07-03T06:31:07.274Z,59.76
2023-07-03T06:33:54.390Z,59.45
2023-07-03T06:36:41.460Z,59.01
2023-07-03T06:39:29.908Z,58.92
2023-07-03T06:42:16.844Z,59.14
2023-07-03T06:45:11.069Z,58.81
2023-07-03T06:47:58.688Z,58.61
2023-07-03T06:50:45.657Z,58.35
2023-07-03T06:53:32.586Z,58.77
2023-07-03T06:56:21.213Z,58.73
2023-07-03T06:59:11.432Z,58.39
2023-07-03T07:02:00.271Z,58.56
2023-07-03T07:04:47.406Z,58.29
2023-07-03T07:07:34.725Z,58.19
2023-07-03T07:10:21.723Z,57.96
2023-07-03T07:13:10.649Z,57.41
2023-07-03T07:15:59.341Z,57.31
2023-07-03T07:18:46.530Z,56.82
2023-07-03T07:21:33.703Z,57.21
2023-07-03T07:24:23.506Z,57.44
2023-07-03T07:27:11.602Z,56.87
2023-07-03T07:29:41.291Z,56.69
2023-07-03T07:32:10.000Z,56.50
2023-07-03T07:34:36.964Z,56.74
2023-07-03T07:37:04.119Z,55.82
2023-07-03T07:39:31.911Z,55.79
2023-07-03T07:41:58.850Z,55.88
2023-07-03T07:44:27.888Z,56.22
2023-07-03T07:46:55.235Z,55.74
2023-07-03T07:49:22.196Z,55.82
2023-07-03T07:51:49.252Z,55.67
2023-07-03T07:54:16.421Z,54.65
2023-07-03T07:56:43.448Z,54.84
2023-07-03T07:59:10.724Z,54.68
2023-07-03T08:01:38.367Z,54.40
2023-07-03T08:04:05.651Z,54.15
2023-07-03T08:06:32.761Z,54.44
2023-07-03T08:09:19.675Z,53.90
2023-07-03T08:12:06.840Z,53.74
2023-07-03T08:14:53.749Z,53.54
2023-07-03T08:17:40.756Z,53.12
2023-07-03T08:20:28.496Z,53.71
2023-07-03T08:23:15.584Z,53.44
2023-07-03T08:26:02.840Z,53.84
2023-07-03T08:28:50.610Z,53.83
2023-07-03T08:31:37.920Z,53.42
2023-07-03T08:34:25.107Z,53.85
2023-07-03T08:37:12.125Z,53.43
2023-07-03T08:40:00.461Z,52.82
2023-07-03T08:42:56.653Z,52.96
2023-07-03T08:45:57.269Z,53.00
2023-07-03T08:48:46.740Z,53.47
2023-07-03T08:51:37.942Z,53.08
2023-07-03T08:54:33.220Z,53.37
2023-07-03T08:57:21.519Z,53.22
2023-07-03T09:00:08.911Z,52.96
2023-07-03T09:03:16.193Z,52.76
2023-07-03T09:06:21.364Z,52.87
2023-07-03T09:09:21.220Z,52.38
2023-07-03T09:12:16.159Z,52.12
2023-07-03T09:15:19.455Z,52.73
2023-07-03T09:18:07.454Z,52.51
2023-07-03T09:20:54.676Z,52.91
2023-07-03T09:23:44.849Z,53.25
2023-07-03T09:26:44.642Z,52.76
2023-07-03T09:29:32.990Z,52.85
2023-07-03T09:32:20.101Z,53.04
2023-07-03T09:35:35.807Z,53.80
2023-07-03T09:38:25.136Z,53.12
2023-07-03T09:41:14.897Z,53.84
2023-07-03T09:44:05.672Z,53.28
2023-07-03T09:46:53.236Z,53.50
2023-07-03T09:49:46.361Z,53.33
2023-07-03T09:52:33.433Z,53.26
2023-07-03T09:55:23.097Z,53.09
2023-07-03T09:58:10.268Z,53.34
2023-07-03T10:07:28.597Z,55.94
2023-07-03T10:12:37.994Z,56.67
2023-07-03T10:15:09.927Z,58.38
2023-07-03T10:17:46.428Z,58.61
2023-07-03T10:20:26.417Z,59.01
2023-07-03T10:22:58.080Z,59.61
2023-07-03T10:25:30.562Z,59.55
2023-07-03T10:28:02.608Z,59.84
2023-07-03T10:30:36.242Z,59.23
2023-07-03T10:33:10.953Z,60.02
2023-07-03T10:35:42.390Z,59.99
2023-07-03T10:38:24.076Z,59.49
2023-07-03T10:41:08.471Z,59.96
2023-07-03T10:43:46.961Z,59.74
2023-07-03T10:46:26.478Z,59.63
2023-07-03T10:48:57.388Z,59.34
2023-07-03T10:51:57.187Z,59.60
2023-07-03T10:54:41.578Z,58.76
2023-07-03T10:57:12.720Z,58.97
2023-07-03T10:59:44.660Z,58.94
2023-07-03T11:02:43.635Z,59.26
2023-07-03T11:05:13.882Z,59.29
2023-07-03T11:07:55.090Z,59.47
2023-07-03T11:10:48.480Z,59.75
2023-07-03T11:13:21.548Z,60.29
2023-07-03T11:16:10.483Z,60.70
2023-07-03T11:24:20.668Z,62.48
2023-07-03T11:30:13.093Z,63.98
2023-07-03T11:32:40.809Z,64.27
2023-07-03T11:40:36.603Z,65.92
2023-07-03T11:45:40.302Z,66.87
2023-07-03T11:48:21.164Z,67.39
2023-07-03T11:50:57.740Z,68.04
2023-07-03T11:53:31.740Z,68.45
2023-07-03T11:55:59.086Z,69.36
2023-07-03T11:58:30.210Z,69.29
2023-07-03T12:01:22.217Z,68.87
2023-07-03T12:03:57.758Z,69.15
2023-07-03T12:06:40.107Z,69.59
2023-07-03T12:09:22.308Z,69.81
2023-07-03T12:12:01.764Z,70.48
2023-07-03T12:14:41.959Z,70.62
2023-07-03T12:17:23.626Z,70.98
2023-07-03T12:19:55.898Z,71.44
2023-07-03T12:22:28.628Z,71.93
2023-07-03T12:25:11.322Z,71.62
2023-07-03T12:27:40.187Z,72.29
2023-07-03T12:30:11.984Z,72.69
2023-07-03T12:32:39.205Z,72.94
2023-07-03T12:35:14.686Z,73.23
2023-07-03T12:37:44.627Z,73.17
2023-07-03T12:40:14.590Z,73.47
2023-07-03T12:42:41.770Z,73.68
2023-07-03T12:45:21.359Z,72.99
2023-07-03T12:48:05.469Z,73.15
2023-07-03T12:50:46.404Z,73.78
2023-07-03T12:53:14.120Z,73.79
2023-07-03T12:55:44.458Z,74.19
2023-07-03T12:58:13.196Z,74.08
2023-07-03T13:00:40.468Z,74.03
2023-07-03T13:03:14.174Z,74.23
2023-07-03T13:05:41.655Z,74.24
2023-07-03T13:08:15.915Z,74.52
2023-07-03T13:11:03.348Z,74.71
2023-07-03T13:13:30.722Z,74.65
2023-07-03T13:15:58.010Z,74.97
2023-07-03T13:18:25.076Z,75.02
2023-07-03T13:21:00.751Z,75.16
2023-07-03T13:23:36.955Z,75.29
2023-07-03T13:26:12.666Z,75.06
2023-07-03T13:28:50.693Z,75.51
2023-07-03T13:31:17.803Z,75.32
2023-07-03T13:34:01.764Z,75.02
2023-07-03T13:36:33.265Z,76.43
2023-07-03T13:39:09.747Z,76.40
2023-07-03T13:41:38.048Z,76.39
2023-07-03T13:44:07.620Z,76.88
2023-07-03T13:46:35.914Z,77.10
2023-07-03T13:49:03.984Z,76.70
2023-07-03T13:51:32.036Z,76.51
2023-07-03T13:54:10.479Z,76.63
2023-07-03T13:56:40.205Z,77.12
2023-07-03T13:59:10.505Z,77.06
2023-07-03T14:01:38.945Z,77.53
2023-07-03T14:04:06.983Z,77.72
2023-07-03T14:06:34.124Z,78.33
2023-07-03T14:09:02.174Z,78.72
2023-07-03T14:11:29.226Z,78.16
2023-07-03T14:13:56.922Z,79.17
2023-07-03T14:16:25.894Z,78.90
2023-07-03T14:18:52.972Z,78.63
2023-07-03T14:21:22.677Z,79.08
2023-07-03T14:23:50.056Z,78.22
2023-07-03T14:26:18.089Z,78.11
2023-07-03T14:28:46.973Z,78.35
2023-07-03T14:31:17.832Z,78.48
2023-07-03T14:33:45.585Z,78.39
2023-07-03T14:36:12.958Z,78.53
2023-07-03T14:38:40.195Z,78.80
2023-07-03T14:41:07.528Z,79.44
2023-07-03T14:43:34.864Z,79.25
2023-07-03T14:46:02.118Z,78.81
2023-07-03T14:48:29.194Z,79.04
2023-07-03T14:50:56.553Z,79.00
2023-07-03T14:53:23.639Z,79.17
2023-07-03T14:55:59.387Z,79.31
2023-07-03T14:58:27.371Z,80.08
2023-07-03T15:00:54.914Z,79.75
2023-07-03T15:03:22.215Z,80.01
2023-07-03T15:05:49.655Z,79.40
2023-07-03T15:08:16.952Z,79.34
2023-07-03T15:10:44.509Z,79.55
2023-07-03T15:13:26.850Z,79.41
2023-07-03T15:15:54.258Z,80.07
2023-07-03T15:18:23.039Z,79.97
2023-07-03T15:20:50.106Z,79.65
2023-07-03T15:23:17.317Z,80.67
2023-07-03T15:25:45.248Z,80.21
2023-07-03T15:28:12.207Z,80.12
2023-07-03T15:30:40.686Z,80.58
2023-07-03T15:33:08.022Z,80.56
2023-07-03T15:35:35.139Z,80.69
2023-07-03T15:38:02.208Z,80.66
2023-07-03T15:40:29.194Z,81.73
2023-07-03T15:42:56.297Z,81.15
2023-07-03T15:45:24.356Z,81.72
2023-07-03T15:47:51.503Z,81.83
2023-07-03T15:50:18.727Z,81.22
2023-07-03T15:52:45.886Z,81.68
2023-07-03T15:55:12.978Z,81.51
2023-07-03T15:57:40.019Z,82.01
2023-07-03T16:00:07.633Z,82.04
2023-07-03T16:02:34.624Z,81.60
2023-07-03T16:05:01.724Z,81.36
2023-07-03T16:07:29.041Z,82.60
2023-07-03T16:09:56.181Z,81.93
2023-07-03T16:12:23.298Z,82.38
2023-07-03T16:14:50.371Z,81.54
2023-07-03T16:17:17.385Z,82.18
2023-07-03T16:20:13.158Z,82.33
2023-07-03T16:22:40.432Z,81.21
2023-07-03T16:25:08.099Z,81.62
2023-07-03T16:27:36.118Z,82.09
2023-07-03T16:30:03.195Z,81.59
2023-07-03T16:32:30.948Z,82.08
2023-07-03T16:34:58.181Z,82.07
2023-07-03T16:37:44.327Z,82.46
2023-07-03T16:40:11.756Z,82.63
2023-07-03T16:42:40.147Z,81.62
2023-07-03T16:45:08.206Z,81.69
2023-07-03T16:47:35.375Z,82.88
2023-07-03T16:50:02.383Z,81.89
2023-07-03T16:52:29.467Z,81.80
2023-07-03T16:54:56.757Z,82.72
2023-07-03T16:57:23.950Z,82.20
2023-07-03T16:59:51.282Z,81.58
2023-07-03T17:02:18.649Z,82.40
2023-07-03T17:04:45.756Z,82.64
2023-07-03T17:07:12.870Z,81.46
2023-07-03T17:09:40.177Z,81.76
2023-07-03T17:12:07.509Z,82.50
2023-07-03T17:14:35.717Z,82.25
2023-07-03T17:17:02.842Z,81.91
2023-07-03T17:19:29.852Z,81.88
2023-07-03T17:21:57.090Z,81.91
2023-07-03T17:24:24.273Z,82.17
2023-07-03T17:26:52.062Z,81.90
2023-07-03T17:29:19.157Z,81.98
2023-07-03T17:31:46.431Z,82.35
2023-07-03T17:34:14.096Z,81.82
2023-07-03T17:36:41.227Z,81.83
2023-07-03T17:39:08.384Z,81.95
2023-07-03T17:41:36.605Z,82.06
2023-07-03T17:44:03.712Z,82.03
2023-07-03T17:46:30.747Z,81.86
2023-07-03T17:48:57.960Z,81.69
2023-07-03T17:51:26.643Z,81.33
2023-07-03T17:53:54.233Z,82.11
2023-07-03T17:56:21.328Z,81.38
2023-07-03T17:58:48.914Z,81.75
2023-07-03T18:01:16.036Z,81.64
2023-07-03T18:03:43.273Z,82.28
2023-07-03T18:06:10.467Z,82.08
2023-07-03T18:08:38.725Z,81.50
2023-07-03T18:11:06.027Z,81.77
2023-07-03T18:13:33.285Z,81.53
2023-07-03T18:16:00.692Z,82.04
2023-07-03T18:18:28.031Z,82.03
2023-07-03T18:20:55.216Z,82.36
2023-07-03T18:23:42.304Z,81.43
2023-07-03T18:26:29.263Z,82.04
2023-07-03T18:29:16.726Z,82.16
2023-07-03T18:32:03.900Z,81.69
2023-07-03T18:34:50.923Z,82.19
2023-07-03T18:37:37.981Z,81.27
2023-07-03T18:40:25.592Z,81.90
2023-07-03T18:43:12.501Z,82.19
2023-07-03T18:45:59.480Z,81.71
2023-07-03T18:48:46.487Z,82.40
2023-07-03T18:51:37.801Z,81.80
2023-07-03T18:54:24.849Z,81.44
2023-07-03T18:57:11.881Z,81.90
2023-07-03T18:59:58.940Z,81.79
2023-07-03T19:02:45.909Z,81.28
2023-07-03T19:05:33.337Z,82.06
2023-07-03T19:08:20.378Z,81.85
2023-07-03T19:11:07.781Z,82.19
2023-07-03T19:13:55.032Z,81.66
2023-07-03T19:16:42.374Z,82.04
2023-07-03T19:19:29.355Z,81.53
2023-07-03T19:22:16.326Z,82.06
2023-07-03T19:25:03.424Z,81.71
2023-07-03T19:27:50.494Z,81.57
2023-07-03T19:30:37.573Z,81.33
2023-07-03T19:33:24.518Z,81.64
2023-07-03T19:36:11.797Z,81.89
2023-07-03T19:38:58.789Z,81.61
2023-07-03T19:41:45.947Z,81.38
2023-07-03T19:44:32.998Z,81.49
2023-07-03T19:47:20.159Z,81.59
2023-07-03T19:50:07.189Z,80.89
2023-07-03T19:52:54.320Z,81.54
2023-07-03T19:55:41.300Z,80.98
2023-07-03T19:58:28.356Z,81.04
2023-07-03T20:01:17.686Z,81.27
2023-07-03T20:04:04.911Z,80.76
2023-07-03T20:06:51.830Z,81.28
2023-07-03T20:09:38.904Z,81.24
2023-07-03T20:12:26.589Z,81.42
2023-07-03T20:15:14.018Z,80.77
2023-07-03T20:18:01.141Z,80.93
2023-07-03T20:20:48.280Z,80.30
2023-07-03T20:23:35.312Z,80.24
2023-07-03T20:26:23.262Z,80.79
2023-07-03T20:29:10.208Z,81.21
2023-07-03T20:31:57.249Z,80.95
2023-07-03T20:34:44.228Z,80.32
2023-07-03T20:37:31.410Z,81.20
2023-07-03T20:40:19.510Z,81.25
2023-07-03T20:43:06.532Z,80.60
2023-07-03T20:45:53.868Z,80.70
2023-07-03T20:48:41.098Z,80.64
2023-07-03T20:51:33.276Z,80.95
2023-07-03T20:54:20.637Z,80.28
2023-07-03T20:57:07.577Z,80.81
2023-07-03T20:59:55.279Z,80.84
2023-07-03T21:02:42.159Z,80.68
2023-07-03T21:05:38.849Z,81.05
2023-07-03T21:08:25.937Z,81.20
2023-07-03T21:11:19.373Z,80.69
2023-07-03T21:14:08.603Z,80.97
2023-07-03T21:16:56.045Z,80.96
2023-07-03T21:19:43.168Z,80.58
2023-07-03T21:22:30.287Z,80.77
2023-07-03T21:25:17.242Z,80.86
2023-07-03T21:28:04.433Z,81.13
2023-07-03T21:30:51.614Z,80.77
2023-07-03T21:33:39.670Z,80.48
2023-07-03T21:36:27.669Z,80.76
2023-07-03T21:39:17.077Z,80.53
2023-07-03T21:42:04.234Z,80.46
2023-07-03T21:44:51.152Z,81.24
2023-07-03T21:47:38.342Z,80.53
2023-07-03T21:50:25.755Z,80.83
2023-07-03T21:53:12.856Z,80.38
2023-07-03T21:55:59.769Z,81.20
2023-07-03T21:58:46.885Z,80.80
2023-07-03T22:01:44.478Z,81.40
2023-07-03T22:04:31.567Z,81.33
2023-07-03T22:07:18.667Z,80.90
2023-07-03T22:10:06.019Z,81.28
2023-07-03T22:12:53.154Z,80.90
2023-07-03T22:15:40.534Z,81.09
2023-07-03T22:18:27.528Z,81.50
2023-07-03T22:21:14.622Z,81.47
2023-07-03T22:24:02.165Z,81.53
2023-07-03T22:26:49.211Z,81.65
2023-07-03T22:29:36.189Z,82.27
2023-07-03T22:32:23.275Z,82.52
2023-07-03T22:35:10.241Z,82.62
2023-07-03T22:37:57.893Z,82.07
2023-07-03T22:40:44.847Z,83.07
2023-07-03T22:43:31.893Z,83.09
2023-07-03T22:46:26.663Z,83.55
2023-07-03T22:49:24.429Z,83.38
2023-07-03T22:52:12.374Z,83.69
2023-07-03T22:54:59.435Z,83.74
2023-07-03T22:57:46.614Z,84.43
2023-07-03T23:00:34.914Z,84.17
2023-07-03T23:03:22.300Z,84.65
2023-07-03T23:06:09.603Z,85.04
2023-07-03T23:08:57.755Z,85.80
2023-07-03T23:11:44.764Z,86.00
2023-07-03T23:14:33.358Z,86.13
2023-07-03T23:17:23.315Z,86.67
2023-07-03T23:20:10.352Z,86.40
2023-07-03T23:22:57.203Z,86.61
2023-07-03T23:25:44.359Z,86.98
2023-07-03T23:28:31.383Z,86.53
2023-07-03T23:31:23.526Z,87.32
2023-07-03T23:34:10.433Z,87.15
2023-07-03T23:36:57.814Z,87.14
2023-07-03T23:39:45.003Z,87.18
2023-07-03T23:42:32.036Z,87.87
2023-07-03T23:45:19.039Z,87.28
2023-07-03T23:48:05.992Z,87.53
2023-07-03T23:50:53.190Z,87.66
2023-07-03T23:53:44.553Z,88.14
2023-07-03T23:56:35.809Z,88.04
2023-07-03T23:59:22.733Z,88.27
